Crumpler, NC

8:09 PM EDT on May 27, 2015 (GMT -0400)
Ashe County | | Change Station
CLOSE
Current Station
Airport
Location: Jefferson,
Elevation: 3179 ft
Nearby Weather Stations

Elev 3179 ft 36.43 °N, 81.42 °W | Updated 14 minutes ago

Clear
Clear
69 °F
Feels Like 69 °F
N
4
Wind Variable Wind from SSE

Today
High -- | Low -- °F
--% Chance of Precip.
Yesterday
High -- | Low -- °F
Precip. -- in
6:11 AM 8:34 PM
Waxing Gibbous, 71% visible
Pressure 30.28 in
Visibility 10.0 miles
Clouds Clear
Dew Point 58 °F
Humidity 69%
Rainfall 0.00 in
Snow Depth Not available.
UV 0 out of 12
Pollen 2.10 out of 12
Air Quality Not available.
Flu Activity No Activity
METAR KGEV 272355Z AUTO 15003KT 10SM CLR 21/15 A3028 RMK AO2 T02050146 10235 20205

More Conditions Fewer Conditions

Pressure 30.28 in
Visibility 10.0 miles
Clouds Clear
Dew Point 58 °F
Humidity 69%
Rainfall 0.00 in
Snow Depth Not available.
UV 0 out of 12
Pollen 2.10 out of 12
Air Quality Not available.
Flu Activity No Activity
METAR KGEV 272355Z AUTO 15003KT 10SM CLR 21/15 A3028 RMK AO2 T02050146 10235 20205

More Conditions Fewer Conditions

10-Day Weather Forecast

Almanac

Astronomy

May. 27, 2015 Rise Set
Actual Time
Civil Twilight
Nautical Twilight
Astronomical Twilight
Moon
Length of Visible Light
Length of Day
Tomorrow will be .
, % of the Moon is Illuminated

Today's Extremes

State Highs State Lows

Community

WunderPhotos

Upload Photos

1,824,825 photos uploaded!

WunderBlogs® & News

Nearby

Air Quality

  Air Quality AQ Index Pollutant
Not available.

Snow Depth

Station Depth Elevation

Earthquake Activity

City Distance Mag. Time & Date
Minimum magnitude displayed is 2.5.

Coastal Water Temperatures

Place Temperature

Stations

Nearby Weather Stations

Station Location Temp. Windchill Dew Point Humidity Wind Precip. Elev Updated Type